Time;durP1;ratioP1;P1;durP2;ratioP2;P2;SDS_P1;SDS_P2;PMS_P1;PMS_P2;Temp;Humidity;BMP_temperature;BMP_pressure;BME280_temperature;BME280_humidity;BME280_pressure;Samples;Min_cycle;Max_cycle;Signal;HPM_P1;HPM_P2
2024/01/16 00:01:16;;;;;;;10.77;7.75;;;12.20;98.30;;;;;;7395636;19;19968;-71
2024/01/16 00:03:42;;;;;;;10.80;7.13;;;12.20;98.10;;;;;;7374763;19;20534;-72
2024/01/16 00:06:08;;;;;;;9.50;6.00;;;12.20;97.60;;;;;;7396644;19;19922;-72
2024/01/16 00:08:33;;;;;;;12.35;6.63;;;12.30;97.70;;;;;;7397011;19;20437;-70
2024/01/16 00:11:01;;;;;;;10.85;6.88;;;12.40;96.70;;;;;;7398004;19;19915;-72
2024/01/16 00:13:27;;;;;;;9.77;6.30;;;12.40;96.60;;;;;;7393930;19;19915;-75
2024/01/16 00:15:52;;;;;;;8.95;5.68;;;12.50;95.80;;;;;;7393168;19;20574;-71
2024/01/16 00:18:18;;;;;;;9.52;6.40;;;12.60;95.30;;;;;;7394723;19;19915;-71
2024/01/16 00:20:44;;;;;;;8.57;5.53;;;12.50;94.90;;;;;;7393260;19;19914;-71
2024/01/16 00:23:10;;;;;;;8.40;5.13;;;12.60;95.30;;;;;;7400151;19;19922;-72
2024/01/16 00:25:36;;;;;;;7.15;4.47;;;12.60;94.60;;;;;;7401622;19;19918;-72
2024/01/16 00:28:02;;;;;;;6.38;3.72;;;12.60;94.40;;;;;;7403137;19;19914;-73
2024/01/16 00:30:29;;;;;;;5.72;3.60;;;12.80;93.70;;;;;;7400748;19;19915;-72
2024/01/16 00:32:54;;;;;;;;;;;12.90;92.80;;;;;;7405655;19;19943;-73
2024/01/16 00:35:20;;;;;;;6.88;3.08;;;12.80;92.80;;;;;;7401762;19;20275;-72
2024/01/16 00:37:46;;;;;;;7.25;4.10;;;12.80;92.60;;;;;;7407293;19;19915;-72
2024/01/16 00:40:13;;;;;;;7.15;4.22;;;12.70;93.20;;;;;;7403884;19;19915;-72
2024/01/16 00:42:39;;;;;;;8.10;4.90;;;12.60;93.60;;;;;;7403233;19;19978;-73
2024/01/16 00:45:05;;;;;;;7.78;4.65;;;12.60;94.10;;;;;;7401619;19;19951;-73
2024/01/16 00:47:31;;;;;;;9.00;5.28;;;12.60;93.90;;;;;;7401627;19;19919;-73
2024/01/16 00:49:57;;;;;;;5.93;3.72;;;12.60;94.00;;;;;;7401704;19;20007;-70
2024/01/16 00:52:22;;;;;;;7.45;3.40;;;12.60;94.00;;;;;;7379049;19;19930;-73
2024/01/16 00:54:48;;;;;;;6.05;3.20;;;12.80;93.00;;;;;;7400397;19;19914;-72
2024/01/16 00:57:16;;;;;;;3.97;2.15;;;13.00;91.20;;;;;;7397903;19;19918;-72
2024/01/16 00:59:42;;;;;;;4.57;2.50;;;13.30;90.20;;;;;;7399546;19;19962;-74
2024/01/16 01:02:09;;;;;;;4.35;2.13;;;13.30;89.00;;;;;;7401457;19;20338;-70
2024/01/16 01:04:35;;;;;;;4.68;2.20;;;13.40;87.10;;;;;;7400699;19;19933;-70
2024/01/16 01:07:01;;;;;;;3.80;1.80;;;13.60;84.90;;;;;;7402120;19;20019;-71
2024/01/16 01:09:26;;;;;;;5.07;1.95;;;13.60;84.10;;;;;;7398759;19;20333;-70
2024/01/16 01:11:52;;;;;;;5.07;2.40;;;13.60;83.20;;;;;;7400689;19;19922;-70
2024/01/16 01:14:18;;;;;;;3.40;1.80;;;13.60;84.00;;;;;;7399828;19;19934;-70
2024/01/16 01:16:44;;;;;;;3.85;1.90;;;13.60;81.60;;;;;;7401127;19;19914;-70
2024/01/16 01:19:09;;;;;;;3.60;1.40;;;13.70;80.80;;;;;;7396203;19;19922;-70
2024/01/16 01:21:36;;;;;;;4.65;2.17;;;13.80;80.10;;;;;;7398654;19;20501;-70
2024/01/16 01:24:01;;;;;;;3.45;2.05;;;13.90;78.80;;;;;;7397751;19;19919;-72
2024/01/16 01:26:27;;;;;;;4.10;1.90;;;13.90;78.50;;;;;;7376677;19;19906;-72
2024/01/16 01:28:53;;;;;;;3.30;1.80;;;14.00;77.90;;;;;;7399488;19;19930;-71
2024/01/16 01:31:18;;;;;;;4.68;2.25;;;14.00;77.50;;;;;;7375092;19;19922;-72
2024/01/16 01:33:44;;;;;;;4.10;2.20;;;13.80;79.00;;;;;;7397816;19;19915;-70
2024/01/16 01:36:10;;;;;;;3.30;2.00;;;13.70;80.80;;;;;;7396044;19;19945;-70
2024/01/16 01:38:36;;;;;;;5.13;2.58;;;13.70;81.30;;;;;;7397661;19;19941;-71
2024/01/16 01:41:02;;;;;;;4.00;2.03;;;13.60;81.40;;;;;;7401799;19;19918;-71
2024/01/16 01:43:27;;;;;;;3.60;1.80;;;13.70;81.20;;;;;;7397537;19;20243;-70
2024/01/16 01:46:08;;;;;;;4.20;1.80;;;13.80;79.80;;;;;;7399080;19;20679;-71
2024/01/16 01:48:35;;;;;;;3.08;1.80;;;13.80;79.30;;;;;;7396793;19;19919;-71
2024/01/16 01:51:01;;;;;;;3.00;1.63;;;13.90;78.40;;;;;;7399359;19;20627;-71
2024/01/16 01:53:30;;;;;;;3.22;1.55;;;14.00;77.90;;;;;;7396860;19;19938;-70
2024/01/16 01:55:56;;;;;;;2.65;1.00;;;14.20;76.00;;;;;;7399221;19;19914;-71
2024/01/16 01:58:23;;;;;;;3.45;1.25;;;14.40;74.20;;;;;;7395720;19;19927;-70
2024/01/16 02:00:49;;;;;;;3.20;1.02;;;14.50;72.80;;;;;;7399768;19;19981;-71
2024/01/16 02:03:15;;;;;;;2.78;1.30;;;14.50;72.30;;;;;;7396705;19;19982;-71
2024/01/16 02:05:41;;;;;;;3.08;1.10;;;14.40;72.60;;;;;;7400107;19;19914;-70
2024/01/16 02:08:08;;;;;;;2.33;1.23;;;14.40;72.50;;;;;;7396713;19;20315;-70
2024/01/16 02:10:38;;;;;;;2.17;1.00;;;14.40;73.10;;;;;;7399416;19;19918;-70
2024/01/16 02:13:04;;;;;;;3.10;1.40;;;14.30;73.90;;;;;;7394677;19;19946;-71
2024/01/16 02:15:30;;;;;;;2.33;1.17;;;14.40;74.80;;;;;;7398045;19;19977;-71
2024/01/16 02:17:57;;;;;;;2.65;1.45;;;14.50;73.70;;;;;;7396910;19;19914;-70
2024/01/16 02:20:23;;;;;;;2.60;1.30;;;14.40;73.90;;;;;;7400727;19;20394;-71
2024/01/16 02:22:53;;;;;;;2.63;1.40;;;14.40;74.20;;;;;;7398691;19;19929;-71
2024/01/16 02:25:19;;;;;;;2.50;1.40;;;14.40;74.70;;;;;;7395170;19;19922;-71
2024/01/16 02:27:47;;;;;;;3.30;1.30;;;14.30;75.60;;;;;;7395903;19;19940;-69
2024/01/16 02:30:13;;;;;;;2.83;1.30;;;14.20;75.20;;;;;;7398348;19;19918;-70
2024/01/16 02:32:38;;;;;;;3.33;1.40;;;14.30;76.30;;;;;;7396713;19;19924;-71
2024/01/16 02:35:05;;;;;;;2.83;1.25;;;14.20;77.30;;;;;;7397502;19;19918;-70
2024/01/16 02:37:30;;;;;;;2.83;1.17;;;14.20;77.20;;;;;;7394817;19;19942;-70
2024/01/16 02:39:56;;;;;;;2.42;1.20;;;14.20;76.80;;;;;;7397266;19;19982;-70
2024/01/16 02:42:22;;;;;;;2.42;1.15;;;14.20;78.20;;;;;;7396318;19;19961;-70
2024/01/16 02:44:47;;;;;;;3.00;1.10;;;14.40;76.20;;;;;;7398609;19;19963;-71
2024/01/16 02:47:13;;;;;;;4.03;1.20;;;14.30;76.20;;;;;;7394216;19;20283;-70
2024/01/16 02:49:40;;;;;;;2.88;1.63;;;14.20;76.50;;;;;;7397053;19;19911;-71
2024/01/16 02:52:05;;;;;;;3.22;1.67;;;14.10;77.00;;;;;;7396314;19;19922;-71
2024/01/16 02:54:31;;;;;;;3.78;1.73;;;14.00;78.60;;;;;;7395061;19;19945;-71
2024/01/16 02:56:57;;;;;;;4.07;1.70;;;13.90;79.70;;;;;;7394958;19;19914;-71
2024/01/16 02:59:23;;;;;;;4.30;1.80;;;13.80;81.10;;;;;;7398849;19;19933;-71
2024/01/16 03:01:49;;;;;;;3.17;1.73;;;13.80;81.20;;;;;;7397115;19;19926;-70
2024/01/16 03:04:14;;;;;;;4.47;2.33;;;13.80;81.90;;;;;;7395765;19;20541;-70
2024/01/16 03:06:40;;;;;;;3.78;1.50;;;13.70;82.30;;;;;;7395948;19;19915;-70
2024/01/16 03:09:06;;;;;;;3.22;1.80;;;13.70;82.50;;;;;;7395732;19;19963;-70
2024/01/16 03:11:33;;;;;;;3.55;2.13;;;13.70;82.70;;;;;;7399148;19;19922;-71
2024/01/16 03:13:59;;;;;;;4.40;1.83;;;13.60;83.40;;;;;;7396444;19;19922;-70
2024/01/16 03:16:25;;;;;;;3.90;2.22;;;13.60;83.80;;;;;;7389970;19;19954;-71
2024/01/16 03:18:51;;;;;;;4.40;1.90;;;13.70;83.00;;;;;;7395553;19;20425;-70
2024/01/16 03:21:17;;;;;;;3.70;2.00;;;13.70;82.70;;;;;;7394513;19;20821;-70
2024/01/16 03:23:42;;;;;;;3.38;1.83;;;13.80;82.10;;;;;;7396175;19;19921;-71
2024/01/16 03:26:13;;;;;;;3.78;2.38;;;13.70;82.60;;;;;;7393021;19;20048;-70
2024/01/16 03:28:39;;;;;;;4.57;2.00;;;13.60;83.50;;;;;;7395233;19;19918;-70
2024/01/16 03:31:05;;;;;;;3.33;1.52;;;13.60;84.30;;;;;;7391694;19;19919;-70
2024/01/16 03:33:31;;;;;;;2.92;1.42;;;13.60;84.70;;;;;;7397800;19;20444;-71
2024/01/16 03:35:57;;;;;;;3.10;1.80;;;13.60;84.60;;;;;;7394848;19;19914;-70
2024/01/16 03:38:23;;;;;;;4.03;1.60;;;13.70;84.30;;;;;;7396868;19;19926;-71
2024/01/16 03:40:51;;;;;;;3.25;1.80;;;13.70;83.70;;;;;;7394763;19;19911;-70
2024/01/16 03:43:17;;;;;;;4.18;1.42;;;13.70;84.10;;;;;;7393842;19;19942;-70
2024/01/16 03:45:43;;;;;;;3.10;1.70;;;13.80;84.00;;;;;;7394830;19;19983;-71
2024/01/16 03:48:09;;;;;;;3.20;1.55;;;13.80;84.10;;;;;;7392774;19;20277;-72
2024/01/16 03:50:36;;;;;;;4.50;2.00;;;13.80;83.50;;;;;;7394043;19;19954;-71
2024/01/16 03:53:03;;;;;;;4.32;2.08;;;13.80;83.70;;;;;;7394509;19;19925;-69
2024/01/16 03:55:31;;;;;;;3.55;2.00;;;13.70;84.40;;;;;;7390770;19;19978;-70
2024/01/16 03:57:56;;;;;;;3.33;1.80;;;13.70;85.60;;;;;;7398263;19;20038;-71
2024/01/16 04:00:22;;;;;;;3.45;1.67;;;13.80;86.10;;;;;;7399699;19;19947;-70
2024/01/16 04:02:48;;;;;;;2.80;1.13;;;13.90;85.90;;;;;;7403637;19;20242;-70
2024/01/16 04:05:13;;;;;;;2.70;1.30;;;14.00;86.00;;;;;;7399370;19;19926;-70
2024/01/16 04:07:39;;;;;;;3.38;2.00;;;14.10;84.40;;;;;;7402513;19;19917;-71
2024/01/16 04:10:07;;;;;;;3.40;1.75;;;14.10;84.00;;;;;;7399202;19;19946;-71
2024/01/16 04:12:32;;;;;;;3.42;1.73;;;14.00;84.00;;;;;;7400870;19;19914;-70
2024/01/16 04:14:58;;;;;;;3.83;2.05;;;14.00;84.40;;;;;;7400170;19;19960;-72
2024/01/16 04:17:24;;;;;;;3.70;1.60;;;14.00;85.30;;;;;;7400689;19;19936;-70
2024/01/16 04:19:49;;;;;;;2.95;1.45;;;14.20;84.70;;;;;;7402462;19;19922;-72
2024/01/16 04:22:16;;;;;;;3.20;1.50;;;14.10;84.30;;;;;;7397698;19;19922;-70
2024/01/16 04:24:42;;;;;;;3.00;1.40;;;14.20;85.40;;;;;;7402529;19;19918;-71
2024/01/16 04:27:07;;;;;;;2.75;1.50;;;14.20;84.60;;;;;;7399279;19;19910;-71
2024/01/16 04:29:35;;;;;;;3.50;1.83;;;14.30;84.40;;;;;;7404446;19;19948;-70
2024/01/16 04:32:01;;;;;;;3.60;1.65;;;14.30;84.40;;;;;;7398969;19;19911;-70
2024/01/16 04:34:27;;;;;;;3.47;1.05;;;14.30;85.10;;;;;;7401546;19;20693;-71
2024/01/16 04:36:53;;;;;;;3.00;1.80;;;14.50;84.00;;;;;;7400653;19;19934;-70
2024/01/16 04:39:19;;;;;;;3.65;1.60;;;14.50;82.90;;;;;;7399396;19;20272;-71
2024/01/16 04:41:44;;;;;;;3.58;1.52;;;14.50;82.80;;;;;;7403135;19;19918;-70
2024/01/16 04:44:10;;;;;;;3.08;1.40;;;14.50;82.80;;;;;;7399201;19;19931;-71
2024/01/16 04:46:36;;;;;;;3.25;1.83;;;14.50;83.00;;;;;;7396617;19;19910;-71
2024/01/16 04:49:02;;;;;;;3.60;1.70;;;14.50;82.90;;;;;;7378879;19;19925;-70
2024/01/16 04:51:27;;;;;;;3.92;2.10;;;14.50;82.80;;;;;;7397071;19;19926;-71
2024/01/16 04:53:53;;;;;;;3.38;1.83;;;14.40;83.50;;;;;;7402890;19;19914;-71
2024/01/16 04:56:19;;;;;;;3.42;1.92;;;14.40;83.40;;;;;;7398112;19;19922;-71
2024/01/16 04:58:45;;;;;;;4.43;2.47;;;14.30;83.90;;;;;;7400077;19;20331;-70
2024/01/16 05:01:11;;;;;;;3.17;1.65;;;14.40;84.30;;;;;;7396376;19;19926;-71
2024/01/16 05:03:37;;;;;;;4.03;1.92;;;14.40;84.90;;;;;;7400745;19;19911;-70
2024/01/16 05:06:03;;;;;;;4.85;2.40;;;14.40;84.10;;;;;;7398998;19;19931;-70
2024/01/16 05:08:30;;;;;;;4.35;2.65;;;14.20;84.70;;;;;;7398579;19;19919;-71
2024/01/16 05:10:56;;;;;;;3.65;1.92;;;14.20;85.20;;;;;;7378177;19;19910;-71
2024/01/16 05:13:22;;;;;;;3.85;1.98;;;14.20;85.70;;;;;;7397091;19;21054;-71
2024/01/16 05:15:48;;;;;;;3.45;2.15;;;14.20;86.40;;;;;;7400071;19;19927;-72
2024/01/16 05:18:14;;;;;;;3.75;2.72;;;14.20;86.80;;;;;;7398786;19;19914;-71
2024/01/16 05:20:40;;;;;;;3.95;1.80;;;14.20;86.80;;;;;;7400491;19;20019;-70
2024/01/16 05:23:05;;;;;;;3.50;1.88;;;14.20;86.60;;;;;;7399023;19;19925;-70
2024/01/16 05:25:31;;;;;;;4.20;1.88;;;14.20;87.10;;;;;;7400615;19;19919;-71
2024/01/16 05:27:57;;;;;;;3.47;1.48;;;14.30;86.70;;;;;;7398545;19;20572;-70
2024/01/16 05:30:23;;;;;;;3.47;1.83;;;14.30;86.00;;;;;;7397876;19;19949;-70
2024/01/16 05:32:48;;;;;;;3.25;1.80;;;14.20;85.70;;;;;;7402174;19;19918;-71
2024/01/16 05:35:14;;;;;;;3.90;1.65;;;14.30;86.40;;;;;;7396948;19;19918;-71
2024/01/16 05:37:40;;;;;;;3.30;1.80;;;14.20;86.70;;;;;;7399153;19;19934;-70
2024/01/16 05:40:07;;;;;;;3.08;1.58;;;14.20;87.70;;;;;;7397325;19;19929;-71
2024/01/16 05:42:33;;;;;;;3.65;1.92;;;14.30;86.80;;;;;;7397220;19;19917;-70
2024/01/16 05:44:59;;;;;;;2.67;1.35;;;14.30;86.30;;;;;;7399859;19;19915;-72
2024/01/16 05:47:27;;;;;;;3.72;1.13;;;14.30;86.70;;;;;;7395386;19;19944;-74
2024/01/16 05:49:54;;;;;;;3.10;1.50;;;14.30;87.00;;;;;;7398638;19;19910;-72
2024/01/16 05:52:19;;;;;;;3.38;1.60;;;14.30;86.80;;;;;;7397450;19;19914;-70
2024/01/16 05:54:45;;;;;;;2.67;1.30;;;14.30;86.50;;;;;;7400206;19;19921;-70
2024/01/16 05:57:11;;;;;;;3.60;1.67;;;14.30;87.40;;;;;;7397005;19;19932;-71
2024/01/16 05:59:37;;;;;;;3.17;1.45;;;14.40;87.30;;;;;;7399067;19;19918;-70
2024/01/16 06:02:02;;;;;;;2.80;1.30;;;14.40;87.50;;;;;;7393818;19;19952;-71
2024/01/16 06:04:28;;;;;;;2.92;1.50;;;14.40;88.10;;;;;;7398070;19;19918;-71
2024/01/16 06:06:54;;;;;;;3.50;1.50;;;14.50;87.00;;;;;;7397498;19;20564;-70
2024/01/16 06:09:20;;;;;;;4.45;1.80;;;14.40;87.00;;;;;;7399695;19;19978;-72
2024/01/16 06:11:45;;;;;;;4.82;1.60;;;14.30;86.90;;;;;;7398159;19;19918;-70
2024/01/16 06:14:12;;;;;;;2.97;1.70;;;14.30;88.30;;;;;;7395976;19;19918;-70
2024/01/16 06:16:38;;;;;;;3.55;1.67;;;14.30;89.60;;;;;;7395294;19;20327;-71
2024/01/16 06:19:04;;;;;;;3.85;1.20;;;14.30;89.30;;;;;;7395714;19;19919;-70
2024/01/16 06:21:31;;;;;;;2.75;1.50;;;14.30;89.50;;;;;;7393025;19;19922;-70
2024/01/16 06:23:56;;;;;;;3.85;1.60;;;14.30;88.60;;;;;;7397538;19;19923;-71
2024/01/16 06:26:23;;;;;;;3.15;1.50;;;14.30;89.10;;;;;;7393029;19;19945;-70
2024/01/16 06:28:49;;;;;;;4.57;1.67;;;14.30;89.60;;;;;;7398132;19;19922;-71
2024/01/16 06:31:15;;;;;;;3.47;1.52;;;14.40;88.60;;;;;;7392228;19;19922;-71
2024/01/16 06:33:41;;;;;;;3.83;1.65;;;14.40;88.70;;;;;;7397319;19;19921;-70
2024/01/16 06:36:07;;;;;;;4.38;1.70;;;14.30;89.90;;;;;;7394395;19;19974;-71
2024/01/16 06:38:33;;;;;;;3.47;1.65;;;14.30;90.00;;;;;;7395853;19;19922;-72
2024/01/16 06:40:59;;;;;;;3.42;1.20;;;14.30;89.60;;;;;;7396847;19;20277;-69
2024/01/16 06:43:24;;;;;;;3.22;1.65;;;14.20;89.90;;;;;;7395092;19;20002;-69
2024/01/16 06:45:50;;;;;;;4.72;1.92;;;14.20;90.20;;;;;;7399580;19;19915;-72
2024/01/16 06:48:16;;;;;;;3.75;1.88;;;14.20;90.30;;;;;;7397212;19;20264;-71
2024/01/16 06:50:42;;;;;;;3.83;1.60;;;14.10;90.50;;;;;;7397990;19;19929;-71
2024/01/16 06:53:08;;;;;;;3.67;1.90;;;14.20;91.50;;;;;;7397263;19;19910;-72
2024/01/16 06:55:34;;;;;;;3.65;1.88;;;14.20;90.80;;;;;;7395596;19;19918;-72
2024/01/16 06:57:59;;;;;;;5.20;2.22;;;14.20;90.80;;;;;;7376111;19;19946;-72
2024/01/16 07:00:26;;;;;;;4.30;2.20;;;14.10;91.10;;;;;;7394611;19;19926;-70
2024/01/16 07:02:54;;;;;;;4.28;1.95;;;14.00;91.60;;;;;;7397991;19;19933;-71
2024/01/16 07:05:21;;;;;;;3.88;1.80;;;14.20;91.70;;;;;;7393088;19;19933;-71
2024/01/16 07:07:47;;;;;;;4.25;2.03;;;14.30;91.30;;;;;;7397029;19;19923;-71
2024/01/16 07:10:17;;;;;;;3.80;2.10;;;14.30;91.10;;;;;;7394336;19;19938;-70
2024/01/16 07:12:44;;;;;;;3.97;1.90;;;14.30;91.30;;;;;;7395024;19;19923;-71
2024/01/16 07:15:10;;;;;;;;;;;14.60;90.80;;;;;;7396512;19;19933;-70
2024/01/16 07:17:36;;;;;;;3.70;1.98;;;14.60;90.40;;;;;;7395265;19;20343;-71
2024/01/16 07:20:02;;;;;;;4.05;1.88;;;14.80;90.30;;;;;;7395904;19;19923;-70
2024/01/16 07:22:28;;;;;;;4.00;2.10;;;14.90;88.50;;;;;;7395136;19;19954;-70
2024/01/16 07:24:54;;;;;;;3.40;1.70;;;14.90;88.00;;;;;;7395965;19;20404;-71
2024/01/16 07:27:20;;;;;;;3.80;2.17;;;15.00;88.10;;;;;;7396240;19;19925;-70
2024/01/16 07:29:45;;;;;;;3.60;1.90;;;15.10;86.20;;;;;;7396756;19;19923;-70
2024/01/16 07:32:11;;;;;;;3.95;2.25;;;15.20;86.20;;;;;;7400434;19;19946;-70
2024/01/16 07:34:37;;;;;;;3.67;2.00;;;15.10;86.20;;;;;;7400544;19;19910;-70
2024/01/16 07:37:03;;;;;;;4.90;1.95;;;15.10;85.80;;;;;;7400099;19;19923;-71
2024/01/16 07:39:29;;;;;;;3.97;2.08;;;15.20;85.20;;;;;;7403187;19;19929;-71
2024/01/16 07:41:54;;;;;;;3.88;2.15;;;15.20;85.40;;;;;;7401771;19;19941;-70
2024/01/16 07:44:21;;;;;;;4.43;1.85;;;15.30;83.90;;;;;;7401750;19;19919;-70
2024/01/16 07:46:46;;;;;;;4.03;2.42;;;15.30;83.30;;;;;;7401493;19;19915;-70
2024/01/16 07:49:12;;;;;;;4.28;1.80;;;15.30;83.60;;;;;;7402631;19;19925;-70
2024/01/16 07:51:38;;;;;;;3.42;1.88;;;15.30;83.70;;;;;;7400889;19;19926;-71
2024/01/16 07:54:09;;;;;;;3.90;1.60;;;15.30;83.10;;;;;;7401366;19;19930;-71
2024/01/16 07:56:35;;;;;;;3.30;2.05;;;15.30;83.50;;;;;;7396869;19;19910;-71
2024/01/16 07:59:02;;;;;;;3.53;1.88;;;15.40;82.30;;;;;;7402267;19;19943;-72
2024/01/16 08:01:32;;;;;;;3.97;1.90;;;15.60;81.30;;;;;;7399845;19;20331;-71
2024/01/16 08:03:58;;;;;;;4.28;2.53;;;15.60;80.70;;;;;;7401443;19;19950;-71
2024/01/16 08:06:24;;;;;;;3.58;1.70;;;15.70;80.00;;;;;;7401852;19;20390;-70
2024/01/16 08:08:50;;;;;;;3.70;1.73;;;15.60;79.80;;;;;;7400053;19;23818;-71
2024/01/16 08:11:16;;;;;;;4.63;2.50;;;15.60;79.80;;;;;;7399160;19;19918;-72
2024/01/16 08:13:42;;;;;;;3.95;1.95;;;15.60;80.00;;;;;;7399290;19;19919;-71
2024/01/16 08:16:08;;;;;;;4.22;2.15;;;15.60;80.30;;;;;;7399198;19;19922;-71
2024/01/16 08:18:34;;;;;;;4.13;1.75;;;15.70;79.60;;;;;;7404248;19;19933;-70
2024/01/16 08:21:00;;;;;;;4.25;1.73;;;15.70;79.20;;;;;;7396467;19;20263;-71
2024/01/16 08:23:26;;;;;;;3.88;1.80;;;15.70;78.90;;;;;;7395926;19;19919;-70
2024/01/16 08:25:51;;;;;;;3.92;2.35;;;15.80;77.90;;;;;;7398821;19;19926;-70
2024/01/16 08:28:20;;;;;;;4.43;1.40;;;15.80;77.50;;;;;;7399996;19;19918;-71
2024/01/16 08:30:46;;;;;;;3.45;2.00;;;15.90;77.00;;;;;;7399803;19;19914;-71
2024/01/16 08:33:12;;;;;;;4.40;2.00;;;16.00;75.90;;;;;;7399403;19;19930;-71
2024/01/16 08:35:38;;;;;;;6.40;2.80;;;16.10;74.40;;;;;;7400427;19;19915;-70
2024/01/16 08:38:04;;;;;;;5.32;2.85;;;16.20;73.60;;;;;;7396729;19;19926;-72
2024/01/16 08:40:30;;;;;;;8.77;4.35;;;16.00;73.50;;;;;;7392608;19;19914;-71
2024/01/16 08:42:56;;;;;;;7.95;4.43;;;16.00;72.30;;;;;;7394961;19;19918;-70
2024/01/16 08:45:23;;;;;;;9.05;4.22;;;15.80;71.70;;;;;;7392761;19;20086;-71
2024/01/16 08:47:49;;;;;;;11.70;5.40;;;15.80;72.00;;;;;;7397936;19;19926;-71
2024/01/16 08:50:15;;;;;;;7.57;4.70;;;15.70;72.40;;;;;;7391946;19;19923;-71
2024/01/16 08:52:42;;;;;;;5.57;2.88;;;15.60;76.00;;;;;;7398462;19;19918;-71
2024/01/16 08:55:09;;;;;;;4.82;3.00;;;15.80;77.50;;;;;;7395284;19;19914;-72
2024/01/16 08:57:37;;;;;;;4.03;1.95;;;16.00;76.30;;;;;;7369583;19;19975;-71
2024/01/16 09:00:08;;;;;;;4.97;1.95;;;16.20;75.70;;;;;;7389762;19;19952;-73
2024/01/16 09:02:37;;;;;;;4.88;2.03;;;16.50;72.90;;;;;;7396976;19;19922;-72
2024/01/16 09:05:04;;;;;;;3.72;1.52;;;16.60;70.80;;;;;;7399904;19;19914;-72
2024/01/16 09:07:30;;;;;;;3.17;1.40;;;16.80;69.20;;;;;;7403060;19;19990;-71
2024/01/16 09:09:56;;;;;;;5.10;2.13;;;17.00;66.70;;;;;;7400226;19;19939;-72
2024/01/16 09:12:22;;;;;;;3.90;1.73;;;17.10;64.70;;;;;;7400168;19;20432;-72
2024/01/16 09:14:48;;;;;;;4.43;1.77;;;17.10;63.30;;;;;;7394114;19;19925;-72
2024/01/16 09:17:13;;;;;;;4.65;1.90;;;17.10;63.40;;;;;;7394921;19;19925;-72
2024/01/16 09:19:39;;;;;;;3.90;1.88;;;17.30;63.40;;;;;;7387565;19;19918;-71
2024/01/16 09:22:05;;;;;;;4.05;2.50;;;17.40;62.50;;;;;;7382624;19;19925;-72
2024/01/16 09:24:31;;;;;;;4.57;2.83;;;17.30;61.30;;;;;;7392745;19;19910;-73
2024/01/16 09:26:58;;;;;;;5.20;2.50;;;17.20;62.00;;;;;;7390434;19;19914;-72
2024/01/16 09:29:24;;;;;;;;;;;17.20;60.90;;;;;;7393295;19;19938;-71
2024/01/16 09:31:50;;;;;;;4.40;2.45;;;17.00;62.10;;;;;;7388038;19;19942;-72
2024/01/16 09:34:17;;;;;;;5.72;2.22;;;16.90;63.20;;;;;;7387647;19;19918;-72
2024/01/16 09:36:43;;;;;;;4.50;1.90;;;17.00;62.80;;;;;;7397911;19;19926;-72
2024/01/16 09:39:10;;;;;;;3.97;2.30;;;17.00;62.10;;;;;;7398174;19;19922;-72
2024/01/16 09:41:37;;;;;;;4.50;2.38;;;17.10;62.40;;;;;;7401345;19;19922;-72
2024/01/16 09:44:03;;;;;;;5.55;2.13;;;17.10;61.80;;;;;;7400222;19;19914;-71
2024/01/16 09:46:31;;;;;;;5.30;3.63;;;17.10;61.50;;;;;;7391773;19;20405;-72
2024/01/16 09:48:59;;;;;;;8.07;2.75;;;16.90;62.30;;;;;;7395364;19;20262;-72
2024/01/16 09:51:25;;;;;;;4.40;2.40;;;16.90;62.20;;;;;;7390799;19;20334;-71
2024/01/16 09:53:51;;;;;;;4.80;3.00;;;16.70;63.10;;;;;;7393636;19;19915;-71
2024/01/16 09:56:20;;;;;;;5.18;2.67;;;16.80;63.20;;;;;;7387474;19;19915;-71
2024/01/16 09:58:49;;;;;;;5.43;3.17;;;17.20;60.70;;;;;;7394732;19;19915;-71
2024/01/16 10:01:16;;;;;;;5.28;3.72;;;17.10;60.60;;;;;;7388783;19;19962;-71
2024/01/16 10:03:44;;;;;;;4.20;3.17;;;17.20;60.40;;;;;;7393316;19;19927;-70
2024/01/16 10:06:11;;;;;;;6.07;3.33;;;17.40;59.00;;;;;;7398501;19;19919;-71
2024/01/16 10:08:40;;;;;;;4.78;2.25;;;17.40;57.30;;;;;;7388995;19;20674;-71
2024/01/16 10:11:06;;;;;;;4.35;2.55;;;17.50;59.50;;;;;;7389664;19;19915;-73
2024/01/16 10:13:33;;;;;;;5.32;3.28;;;17.30;57.90;;;;;;7401403;19;19943;-71
2024/01/16 10:15:59;;;;;;;6.03;3.28;;;17.20;59.10;;;;;;7393184;19;19932;-71
2024/01/16 10:18:26;;;;;;;5.18;2.30;;;17.10;58.80;;;;;;7389075;19;19919;-71
2024/01/16 10:20:53;;;;;;;5.47;3.85;;;17.40;58.50;;;;;;7394072;19;19922;-71
2024/01/16 10:23:36;;;;;;;5.95;4.53;;;17.60;56.60;;;;;;7391630;19;20345;-72
2024/01/16 10:26:13;;;;;;;5.57;3.47;;;17.70;53.40;;;;;;7399285;19;20014;-72
2024/01/16 10:28:41;;;;;;;5.50;3.97;;;17.60;53.80;;;;;;7398640;19;19922;-72
2024/01/16 10:31:11;;;;;;;5.78;3.78;;;17.40;54.80;;;;;;7394128;19;19915;-72
2024/01/16 10:33:39;;;;;;;4.97;3.67;;;17.40;56.20;;;;;;7401285;19;19922;-72
2024/01/16 10:36:11;;;;;;;4.95;3.72;;;17.30;56.70;;;;;;7397352;19;19936;-71
2024/01/16 10:38:41;;;;;;;6.40;2.80;;;17.50;56.50;;;;;;7394197;19;20290;-71
2024/01/16 10:41:10;;;;;;;6.97;3.50;;;17.70;55.20;;;;;;7392803;19;19940;-72
2024/01/16 10:43:37;;;;;;;4.68;3.65;;;18.10;55.40;;;;;;7397898;19;19927;-72
2024/01/16 10:46:23;;;;;;;5.10;3.28;;;18.70;51.20;;;;;;7392047;19;19930;-72
2024/01/16 10:49:03;;;;;;;6.28;3.33;;;19.30;47.30;;;;;;7398586;19;19922;-71
2024/01/16 10:51:30;;;;;;;4.93;2.78;;;19.10;45.40;;;;;;7393580;19;20767;-71
2024/01/16 10:54:11;;;;;;;5.95;3.55;;;19.40;44.70;;;;;;7395211;19;20065;-72
2024/01/16 10:56:38;;;;;;;5.82;3.45;;;19.80;43.20;;;;;;7397546;19;19911;-71
2024/01/16 10:59:34;;;;;;;6.38;4.55;;;20.10;43.50;;;;;;7397982;19;19954;-72
2024/01/16 11:02:03;;;;;;;7.80;5.07;;;20.30;39.30;;;;;;7392298;19;19968;-71
2024/01/16 11:04:30;;;;;;;6.43;4.82;;;19.90;39.30;;;;;;7396351;19;19944;-72
2024/01/16 11:06:57;;;;;;;5.35;3.88;;;19.70;40.80;;;;;;7394874;19;20334;-72
2024/01/16 11:09:23;;;;;;;5.63;3.80;;;18.80;46.10;;;;;;7398404;19;20326;-72
2024/01/16 11:11:50;;;;;;;;;;;18.50;48.40;;;;;;7389347;19;19922;-72
2024/01/16 11:14:17;;;;;;;5.28;3.70;;;18.00;50.90;;;;;;7397962;19;20327;-72
2024/01/16 11:16:47;;;;;;;5.65;3.20;;;18.80;49.10;;;;;;7380491;19;19918;-71
2024/01/16 11:19:14;;;;;;;4.57;3.00;;;18.90;48.10;;;;;;7368889;19;19918;-71
2024/01/16 11:21:43;;;;;;;4.97;2.72;;;18.70;47.10;;;;;;7382112;19;19922;-73
2024/01/16 11:24:09;;;;;;;5.65;2.20;;;18.50;48.00;;;;;;7389418;19;19915;-72
2024/01/16 11:26:36;;;;;;;5.40;2.22;;;18.30;48.70;;;;;;7399667;19;19931;-73
2024/01/16 11:29:28;;;;;;;4.00;2.20;;;18.20;48.80;;;;;;7395670;19;19921;-75
2024/01/16 11:31:55;;;;;;;3.60;1.73;;;17.90;48.70;;;;;;7394874;19;19914;-72
2024/01/16 11:34:42;;;;;;;3.67;2.15;;;17.80;50.30;;;;;;7396908;19;19932;-73
2024/01/16 11:37:29;;;;;;;4.25;2.45;;;17.70;50.40;;;;;;7387769;19;19923;-71
2024/01/16 11:40:18;;;;;;;4.07;2.00;;;17.60;51.70;;;;;;7398012;19;19918;-73
2024/01/16 11:42:44;;;;;;;3.95;1.90;;;17.40;52.30;;;;;;7391671;19;20449;-72
2024/01/16 11:45:28;;;;;;;4.13;2.33;;;17.30;53.00;;;;;;7397690;19;19919;-71
2024/01/16 11:48:10;;;;;;;5.57;2.38;;;17.30;53.50;;;;;;7393879;19;19919;-72
2024/01/16 11:50:36;;;;;;;13.20;8.32;;;17.10;54.30;;;;;;7391074;19;20343;-73
2024/01/16 11:53:02;;;;;;;16.85;8.57;;;16.90;57.70;;;;;;7395201;19;19933;-73
2024/01/16 11:55:33;;;;;;;15.20;8.88;;;16.80;59.30;;;;;;7393113;19;19926;-72
2024/01/16 11:58:25;;;;;;;24.20;9.40;;;16.70;61.30;;;;;;7402946;19;20271;-73
2024/01/16 12:00:52;;;;;;;19.75;10.27;;;16.70;61.70;;;;;;7398286;19;19910;-72
2024/01/16 12:03:20;;;;;;;18.00;9.38;;;16.80;61.50;;;;;;7398013;19;19938;-72
2024/01/16 12:05:59;;;;;;;17.30;8.73;;;16.80;61.40;;;;;;7395439;19;19937;-73
2024/01/16 12:08:25;;;;;;;16.10;7.05;;;16.70;61.10;;;;;;7388411;19;19926;-72
2024/01/16 12:10:51;;;;;;;14.20;8.73;;;16.60;62.10;;;;;;7376982;19;20489;-72
2024/01/16 12:13:17;;;;;;;14.77;9.02;;;16.70;62.40;;;;;;7387064;19;20641;-72
2024/01/16 12:15:43;;;;;;;13.25;7.28;;;16.70;61.80;;;;;;7398095;19;19918;-73
2024/01/16 12:18:09;;;;;;;12.20;7.13;;;16.80;61.30;;;;;;7392561;19;19978;-72
2024/01/16 12:20:38;;;;;;;14.50;7.03;;;16.80;60.90;;;;;;7403759;19;19928;-72
2024/01/16 12:23:06;;;;;;;14.98;7.70;;;16.80;61.10;;;;;;7401571;19;19914;-73
2024/01/16 12:25:34;;;;;;;16.63;7.78;;;16.80;61.30;;;;;;7405123;19;19919;-72
2024/01/16 12:28:10;;;;;;;18.00;9.15;;;16.70;61.30;;;;;;7402818;19;19925;-72
2024/01/16 12:30:37;;;;;;;14.70;7.80;;;16.70;62.80;;;;;;7403135;19;19919;-72
2024/01/16 12:33:13;;;;;;;12.25;5.85;;;16.80;62.20;;;;;;7398525;19;19918;-71
2024/01/16 12:35:41;;;;;;;13.88;7.20;;;16.80;61.60;;;;;;7402202;19;20043;-73
2024/01/16 12:38:11;;;;;;;14.65;6.78;;;16.80;62.10;;;;;;7378120;19;20331;-76
2024/01/16 12:40:44;;;;;;;12.63;6.15;;;16.90;61.70;;;;;;7401400;19;19911;-73
2024/01/16 12:43:10;;;;;;;11.48;7.05;;;16.90;61.60;;;;;;7396112;19;19962;-71
2024/01/16 12:45:36;;;;;;;9.30;4.90;;;17.00;61.60;;;;;;7400499;19;19922;-72
2024/01/16 12:48:04;;;;;;;9.05;4.80;;;17.10;61.10;;;;;;7396163;19;19907;-72